Time;durP1;ratioP1;P1;durP2;ratioP2;P2;SDS_P1;SDS_P2;PMS_P1;PMS_P2;Temp;Humidity;BMP_temperature;BMP_pressure;BME280_temperature;BME280_humidity;BME280_pressure;Samples;Min_cycle;Max_cycle;Signal;HPM_P1;HPM_P2
2021/04/15 00:01:08;;;;;;;8.85;4.50;;;;;;;-139.48;100.00;61774.03;5058930;28;20105;-68
2021/04/15 00:03:53;;;;;;;9.25;4.55;;;;;;;-139.48;100.00;61774.03;5073433;28;20129;-68
2021/04/15 00:06:38;;;;;;;5.43;4.07;;;;;;;-139.48;100.00;61774.03;5058760;28;20413;-67
2021/04/15 00:09:23;;;;;;;6.80;4.78;;;;;;;-139.48;100.00;61774.03;5058697;28;20483;-67
2021/04/15 00:12:07;;;;;;;7.95;4.30;;;;;;;-139.48;100.00;61774.03;5058495;28;20132;-67
2021/04/15 00:14:51;;;;;;;6.55;4.53;;;;;;;-139.48;100.00;61774.03;5073705;28;20409;-67
2021/04/15 00:17:35;;;;;;;5.45;3.97;;;;;;;-139.48;100.00;61774.03;5073787;28;20074;-67
2021/04/15 00:20:21;;;;;;;7.95;5.03;;;;;;;-139.48;100.00;61774.03;5073495;28;20083;-67
2021/04/15 00:23:05;;;;;;;6.88;5.20;;;;;;;-139.48;100.00;61774.03;5058229;28;20474;-67
2021/04/15 00:25:49;;;;;;;7.55;5.32;;;;;;;-139.48;100.00;61774.03;5073688;28;20086;-67
2021/04/15 00:28:33;;;;;;;5.40;4.70;;;;;;;-139.48;100.00;61774.03;5044329;28;20177;-67
2021/04/15 00:31:18;;;;;;;9.40;4.60;;;;;;;-139.48;100.00;61774.03;5058338;28;20052;-66
2021/04/15 00:34:02;;;;;;;9.55;5.25;;;;;;;-139.48;100.00;61774.03;5058122;28;20500;-67
2021/04/15 00:36:46;;;;;;;8.35;5.20;;;;;;;-139.48;100.00;61774.03;5058025;28;20055;-67
2021/04/15 00:39:30;;;;;;;7.10;5.30;;;;;;;-139.48;100.00;61774.03;5073155;28;20098;-67
2021/04/15 00:42:14;;;;;;;5.40;4.60;;;;;;;-139.48;100.00;61774.03;5057907;28;20102;-66
2021/04/15 00:45:09;;;;;;;10.18;5.13;;;;;;;-139.48;100.00;61774.03;5058322;28;20051;-65
2021/04/15 00:47:59;;;;;;;7.53;5.15;;;;;;;-139.48;100.00;61774.03;5059246;28;20093;-67
2021/04/15 00:50:52;;;;;;;8.10;4.85;;;;;;;-139.48;100.00;61774.03;5073277;28;20075;-67
2021/04/15 00:53:46;;;;;;;6.43;4.97;;;;;;;-139.48;100.00;61774.03;5057719;28;20035;-67
2021/04/15 00:56:30;;;;;;;9.25;5.60;;;;;;;-139.48;100.00;61774.03;5058076;28;20093;-67
2021/04/15 00:59:14;;;;;;;7.68;5.13;;;;;;;-139.48;100.00;61774.03;5043975;28;20072;-67
2021/04/15 01:01:58;;;;;;;6.72;5.07;;;;;;;-139.48;100.00;61774.03;5057536;28;20067;-67
2021/04/15 01:04:42;;;;;;;7.88;5.78;;;;;;;-139.48;100.00;61774.03;5057964;28;20050;-67
2021/04/15 01:07:26;;;;;;;9.20;5.35;;;;;;;-139.48;100.00;61774.03;5057898;28;20047;-66
2021/04/15 01:10:11;;;;;;;7.40;5.13;;;;;;;-139.48;100.00;61774.03;5073053;28;20048;-67
2021/04/15 01:13:17;;;;;;;6.35;4.57;;;;;;;-139.48;100.00;61774.03;5057750;28;20473;-67
2021/04/15 01:16:08;;;;;;;9.32;5.07;;;;;;;-139.48;100.00;61774.03;5057919;28;20047;-67
2021/04/15 01:19:23;;;;;;;9.57;5.65;;;;;;;-139.48;100.00;61774.03;5059128;28;20051;-68
2021/04/15 01:22:10;;;;;;;;;;;;;;;-139.48;100.00;61774.03;5077197;28;20093;-67
2021/04/15 01:25:27;;;;;;;9.82;6.30;;;;;;;-139.48;100.00;61774.03;5076556;28;19986;-67
2021/04/15 01:28:20;;;;;;;7.00;5.72;;;;;;;-139.48;100.00;61774.03;5049973;28;20500;-68
2021/04/15 01:31:12;;;;;;;7.68;5.13;;;;;;;-139.48;100.00;61774.03;5061810;28;20043;-67
2021/04/15 01:34:02;;;;;;;7.18;5.60;;;;;;;-139.48;100.00;61774.03;5061217;28;20405;-67
2021/04/15 01:37:10;;;;;;;6.68;5.30;;;;;;;-139.48;100.00;61774.03;5061209;28;20055;-67
2021/04/15 01:40:19;;;;;;;7.07;5.47;;;;;;;-139.48;100.00;61774.03;5061152;28;20043;-67
2021/04/15 01:43:42;;;;;;;8.05;5.30;;;;;;;-139.48;100.00;61774.03;5046967;28;20043;-67
2021/04/15 01:46:31;;;;;;;6.75;5.25;;;;;;;-139.48;100.00;61774.03;5061209;28;20511;-67
2021/04/15 01:49:17;;;;;;;7.63;5.57;;;;;;;-139.48;100.00;61774.03;5076363;28;20047;-67
2021/04/15 01:52:03;;;;;;;8.82;6.20;;;;;;;-139.48;100.00;61774.03;5047019;28;20098;-67
2021/04/15 01:55:09;;;;;;;8.50;5.28;;;;;;;-139.48;100.00;61774.03;5060883;28;20413;-67
2021/04/15 01:58:20;;;;;;;8.68;5.70;;;;;;;-139.48;100.00;61774.03;5075925;28;20059;-67
2021/04/15 02:01:20;;;;;;;7.63;5.78;;;;;;;-139.48;100.00;61774.03;5076041;28;20551;-67
2021/04/15 02:04:08;;;;;;;9.73;6.05;;;;;;;-139.48;100.00;61774.03;5046514;28;20127;-67
2021/04/15 02:06:55;;;;;;;9.05;6.15;;;;;;;-139.48;100.00;61774.03;5060658;28;20576;-67
2021/04/15 02:09:40;;;;;;;9.13;6.25;;;;;;;-139.48;100.00;61774.03;5060875;28;20059;-67
2021/04/15 02:12:28;;;;;;;10.15;6.22;;;;;;;-139.48;100.00;61774.03;5060472;28;20089;-67
2021/04/15 02:15:25;;;;;;;10.50;6.65;;;;;;;-139.48;100.00;61774.03;5046814;28;20118;-67
2021/04/15 02:18:10;;;;;;;10.27;7.05;;;;;;;-139.48;100.00;61774.03;5046676;28;20417;-67
2021/04/15 02:20:58;;;;;;;11.10;7.07;;;;;;;-139.48;100.00;61774.03;5060721;28;20492;-66
2021/04/15 02:23:50;;;;;;;10.13;7.00;;;;;;;-139.48;100.00;61774.03;5060197;28;20194;-66
2021/04/15 02:26:38;;;;;;;10.20;6.97;;;;;;;-139.48;100.00;61774.03;5060880;28;20052;-66
2021/04/15 02:29:24;;;;;;;9.80;6.85;;;;;;;-139.48;100.00;61774.03;5060356;28;20094;-68
2021/04/15 02:32:33;;;;;;;9.80;6.45;;;;;;;-139.48;100.00;61774.03;5059668;28;20110;-66
2021/04/15 02:35:22;;;;;;;9.35;6.57;;;;;;;-139.48;100.00;61774.03;5060267;28;20110;-68
2021/04/15 02:38:07;;;;;;;8.23;6.57;;;;;;;-139.48;100.00;61774.03;5060065;28;20178;-68
2021/04/15 02:40:53;;;;;;;8.70;6.50;;;;;;;-139.48;100.00;61774.03;5046001;28;20063;-66
2021/04/15 02:43:51;;;;;;;11.05;7.03;;;;;;;-139.48;100.00;61774.03;5059909;28;20101;-68
2021/04/15 02:46:45;;;;;;;12.95;7.15;;;;;;;-139.48;100.00;61774.03;5060948;28;20054;-68
2021/04/15 02:49:30;;;;;;;9.70;7.07;;;;;;;-139.48;100.00;61774.03;5046093;28;20058;-68
2021/04/15 02:52:18;;;;;;;12.05;6.85;;;;;;;-139.48;100.00;61774.03;5059611;28;20179;-68
2021/04/15 02:55:10;;;;;;;9.80;7.45;;;;;;;-139.48;100.00;61774.03;5059965;28;20178;-67
2021/04/15 02:58:01;;;;;;;8.68;6.85;;;;;;;-139.48;100.00;61774.03;5059787;28;20047;-66
2021/04/15 03:00:45;;;;;;;12.35;7.03;;;;;;;-139.48;100.00;61774.03;5059907;28;20127;-68
2021/04/15 03:03:33;;;;;;;10.18;7.25;;;;;;;-139.48;100.00;61774.03;5059437;28;20580;-68
2021/04/15 03:06:20;;;;;;;9.15;6.70;;;;;;;-139.48;100.00;61774.03;5059711;28;20094;-68
2021/04/15 03:09:06;;;;;;;11.25;7.35;;;;;;;-139.48;100.00;61774.03;5059755;28;20050;-68
2021/04/15 03:11:57;;;;;;;9.35;6.80;;;;;;;-139.48;100.00;61774.03;5059610;28;20048;-68
2021/04/15 03:14:47;;;;;;;12.60;6.85;;;;;;;-139.48;100.00;61774.03;5045580;28;20451;-68
2021/04/15 03:17:34;;;;;;;10.05;6.97;;;;;;;-139.48;100.00;61774.03;5045263;28;20046;-67
2021/04/15 03:20:25;;;;;;;9.50;7.07;;;;;;;-139.48;100.00;61774.03;5045532;28;20054;-68
2021/04/15 03:23:27;;;;;;;11.60;7.43;;;;;;;-139.48;100.00;61774.03;5045390;28;20093;-67
2021/04/15 03:26:20;;;;;;;13.07;8.23;;;;;;;-139.48;100.00;61774.03;5074448;28;20495;-67
2021/04/15 03:29:06;;;;;;;10.52;7.28;;;;;;;-139.48;100.00;61774.03;5059093;28;20413;-68
2021/04/15 03:32:14;;;;;;;11.80;7.60;;;;;;;-139.48;100.00;61774.03;5058869;28;20047;-68
2021/04/15 03:35:14;;;;;;;10.43;7.50;;;;;;;-139.48;100.00;61774.03;5044975;28;20047;-68
2021/04/15 03:38:06;;;;;;;10.07;7.78;;;;;;;-139.48;100.00;61774.03;5045119;28;20534;-66
2021/04/15 03:40:55;;;;;;;10.18;7.00;;;;;;;-139.48;100.00;61774.03;5074099;28;20480;-65
2021/04/15 03:43:48;;;;;;;10.40;7.20;;;;;;;-139.48;100.00;61774.03;5058880;28;20047;-66
2021/04/15 03:46:43;;;;;;;11.48;7.50;;;;;;;-139.48;100.00;61774.03;5059167;28;20043;-68
2021/04/15 03:49:32;;;;;;;9.65;7.35;;;;;;;-139.48;100.00;61774.03;5059394;28;20443;-68
2021/04/15 03:52:22;;;;;;;11.32;7.47;;;;;;;-139.48;100.00;61774.03;5058928;28;20102;-68
2021/04/15 03:55:10;;;;;;;13.18;7.72;;;;;;;-139.48;100.00;61774.03;5058829;28;20101;-68
2021/04/15 03:57:59;;;;;;;12.65;7.72;;;;;;;-139.48;100.00;61774.03;5058920;28;20043;-68
2021/04/15 04:00:47;;;;;;;11.60;8.10;;;;;;;-139.48;100.00;61774.03;5058636;28;20513;-68
2021/04/15 04:03:32;;;;;;;14.18;7.95;;;;;;;-139.48;100.00;61774.03;5058362;28;20124;-68
2021/04/15 04:06:23;;;;;;;10.35;7.43;;;;;;;-139.48;100.00;61774.03;5058405;28;20079;-68
2021/04/15 04:09:22;;;;;;;12.25;7.40;;;;;;;-139.48;100.00;61774.03;5058402;28;20508;-68
2021/04/15 04:12:12;;;;;;;11.45;7.50;;;;;;;-139.48;100.00;61774.03;5058820;28;20047;-67
2021/04/15 04:15:12;;;;;;;13.30;8.57;;;;;;;-139.48;100.00;61774.03;5058509;28;20159;-66
2021/04/15 04:18:06;;;;;;;11.95;8.02;;;;;;;-139.48;100.00;61774.03;5073645;28;20508;-67
2021/04/15 04:20:55;;;;;;;11.50;8.00;;;;;;;-139.48;100.00;61774.03;5044346;28;20063;-67
2021/04/15 04:24:12;;;;;;;12.57;8.05;;;;;;;-139.48;100.00;61774.03;5058338;28;20044;-68
2021/04/15 04:26:59;;;;;;;15.10;8.75;;;;;;;-139.48;100.00;61774.03;5044136;28;20051;-68
2021/04/15 04:29:51;;;;;;;15.23;8.35;;;;;;;-139.48;100.00;61774.03;5058019;28;20087;-67
2021/04/15 04:32:37;;;;;;;15.23;8.88;;;;;;;-139.48;100.00;61774.03;5044293;28;20067;-68
2021/04/15 04:35:23;;;;;;;14.20;8.10;;;;;;;-139.48;100.00;61774.03;5058321;28;20043;-67
2021/04/15 04:38:09;;;;;;;14.88;8.85;;;;;;;-139.48;100.00;61774.03;5044191;28;20063;-67
2021/04/15 04:40:56;;;;;;;15.95;8.98;;;;;;;-139.48;100.00;61774.03;5057899;28;20055;-67
2021/04/15 04:43:40;;;;;;;15.02;9.27;;;;;;;-139.48;100.00;61774.03;5057862;28;20150;-67
2021/04/15 04:46:30;;;;;;;13.85;9.80;;;;;;;-139.48;100.00;61774.03;5073080;28;20067;-67
2021/04/15 04:49:28;;;;;;;18.23;9.65;;;;;;;-139.48;100.00;61774.03;5057772;28;20046;-68
2021/04/15 04:52:15;;;;;;;16.48;9.32;;;;;;;-139.48;100.00;61774.03;5057744;28;20051;-66
2021/04/15 04:55:00;;;;;;;14.82;10.13;;;;;;;-139.48;100.00;61774.03;5061426;28;20051;-66
2021/04/15 04:57:43;;;;;;;18.20;10.63;;;;;;;-139.48;100.00;61774.03;5062214;28;20451;-68
2021/04/15 05:00:28;;;;;;;18.80;11.10;;;;;;;-139.48;100.00;61774.03;5061845;28;20051;-67
2021/04/15 05:03:18;;;;;;;15.38;10.45;;;;;;;-139.48;100.00;61774.03;5061659;28;20044;-67
2021/04/15 05:06:05;;;;;;;17.98;10.55;;;;;;;-139.48;100.00;61774.03;5061791;28;20102;-67
2021/04/15 05:09:04;;;;;;;20.67;11.25;;;;;;;-139.48;100.00;61774.03;5047867;28;20101;-67
2021/04/15 05:11:50;;;;;;;19.50;11.35;;;;;;;-139.48;100.00;61774.03;5076848;28;20052;-67
2021/04/15 05:14:34;;;;;;;20.35;10.95;;;;;;;-139.48;100.00;61774.03;5047783;28;20075;-67
2021/04/15 05:17:36;;;;;;;15.95;10.48;;;;;;;-139.48;100.00;61774.03;5061807;28;20078;-65
2021/04/15 05:20:24;;;;;;;20.63;11.55;;;;;;;-139.48;100.00;61774.03;5076885;28;20051;-66
2021/04/15 05:23:14;;;;;;;18.67;11.20;;;;;;;-139.48;100.00;61774.03;5062233;28;20043;-67
2021/04/15 05:26:20;;;;;;;18.92;11.40;;;;;;;-139.48;100.00;61774.03;5076580;28;20050;-68
2021/04/15 05:29:07;;;;;;;16.05;10.63;;;;;;;-139.48;100.00;61774.03;5061468;28;20043;-68
2021/04/15 05:31:53;;;;;;;19.38;12.02;;;;;;;-139.48;100.00;61774.03;5047753;28;20043;-68
2021/04/15 05:34:55;;;;;;;21.38;11.60;;;;;;;-139.48;100.00;61774.03;5061656;28;20406;-66
2021/04/15 05:37:39;;;;;;;18.33;11.55;;;;;;;-139.48;100.00;61774.03;5061273;28;20085;-68
2021/04/15 05:40:23;;;;;;;19.90;11.50;;;;;;;-139.48;100.00;61774.03;5061271;28;20056;-67
2021/04/15 05:43:17;;;;;;;20.63;12.23;;;;;;;-139.48;100.00;61774.03;5061294;28;20102;-68
2021/04/15 05:46:09;;;;;;;;;;;;;;;-139.48;100.00;61774.03;5061744;28;20527;-65
2021/04/15 05:48:58;;;;;;;18.38;12.40;;;;;;;-139.48;100.00;61774.03;5060954;28;19970;-68
2021/04/15 05:51:53;;;;;;;26.17;12.40;;;;;;;-139.48;100.00;61774.03;5061138;28;20508;-68
2021/04/15 05:54:37;;;;;;;;;;;;;;;-139.48;100.00;61774.03;5061809;28;20551;-66
2021/04/15 05:57:26;;;;;;;19.13;9.43;;;;;;;-139.48;100.00;61774.03;5061456;28;19963;-68
2021/04/15 06:00:17;;;;;;;18.00;12.10;;;;;;;-139.48;100.00;61774.03;5060953;28;20507;-67
2021/04/15 06:03:22;;;;;;;17.00;11.95;;;;;;;-139.48;100.00;61774.03;5060635;28;20051;-65
2021/04/15 06:06:09;;;;;;;20.70;11.93;;;;;;;-139.48;100.00;61774.03;5060788;28;20087;-65
2021/04/15 06:08:53;;;;;;;19.05;13.02;;;;;;;-139.48;100.00;61774.03;5046588;28;20079;-65
2021/04/15 06:11:56;;;;;;;19.52;12.18;;;;;;;-139.48;100.00;61774.03;5060622;28;20047;-65
2021/04/15 06:14:52;;;;;;;20.75;12.50;;;;;;;-139.48;100.00;61774.03;5075782;28;20102;-65
2021/04/15 06:17:49;;;;;;;17.48;12.27;;;;;;;-139.48;100.00;61774.03;5060888;28;20078;-67
2021/04/15 06:20:39;;;;;;;20.90;12.13;;;;;;;-139.48;100.00;61774.03;5060751;28;20050;-67
2021/04/15 06:23:30;;;;;;;19.83;12.48;;;;;;;-139.48;100.00;61774.03;5046611;28;20069;-66
2021/04/15 06:26:42;;;;;;;18.75;12.70;;;;;;;-139.48;100.00;61774.03;5060694;28;20417;-66
2021/04/15 06:29:41;;;;;;;18.73;11.35;;;;;;;-139.48;100.00;61774.03;5075450;28;20170;-66
2021/04/15 06:32:58;;;;;;;24.15;12.35;;;;;;;-139.48;100.00;61774.03;5075275;28;20071;-66
2021/04/15 06:35:45;;;;;;;18.23;11.00;;;;;;;-139.48;100.00;61774.03;5060228;28;20389;-66
2021/04/15 06:38:32;;;;;;;16.98;11.52;;;;;;;-139.48;100.00;61774.03;5060112;28;20448;-66
2021/04/15 06:41:38;;;;;;;22.55;12.77;;;;;;;-139.48;100.00;61774.03;5075444;28;20055;-67
2021/04/15 06:44:31;;;;;;;17.25;11.00;;;;;;;-139.48;100.00;61774.03;5060224;28;20054;-67
2021/04/15 06:47:18;;;;;;;16.20;11.48;;;;;;;-139.48;100.00;61774.03;5075063;28;20110;-67
2021/04/15 06:50:44;;;;;;;19.08;11.10;;;;;;;-139.48;100.00;61774.03;5060125;28;20113;-67
2021/04/15 06:53:37;;;;;;;19.27;11.88;;;;;;;-139.48;100.00;61774.03;5053670;28;20043;-66
2021/04/15 06:56:32;;;;;;;18.23;12.23;;;;;;;-139.48;100.00;61774.03;5059902;28;20043;-66
2021/04/15 06:59:34;;;;;;;;;;;;;;;-139.48;100.00;61774.03;5046582;28;20093;-66
2021/04/15 07:02:22;;;;;;;22.27;11.80;;;;;;;-139.48;100.00;61774.03;5059524;28;20375;-66
2021/04/15 07:05:13;;;;;;;16.95;9.95;;;;;;;-139.48;100.00;61774.03;5045480;28;20119;-66
2021/04/15 07:08:05;;;;;;;16.58;10.88;;;;;;;-139.48;100.00;61774.03;5045458;28;20135;-67
2021/04/15 07:11:06;;;;;;;18.02;11.10;;;;;;;-139.48;100.00;61774.03;5059810;28;20047;-66
2021/04/15 07:14:03;;;;;;;19.60;11.13;;;;;;;-139.48;100.00;61774.03;5074424;28;20068;-67
2021/04/15 07:17:06;;;;;;;17.27;11.32;;;;;;;-139.48;100.00;61774.03;5074421;28;20052;-66
2021/04/15 07:20:00;;;;;;;16.33;10.90;;;;;;;-139.48;100.00;61774.03;5074884;28;20047;-67
2021/04/15 07:22:52;;;;;;;16.73;11.13;;;;;;;-139.48;100.00;61774.03;5074468;28;20131;-67
2021/04/15 07:25:48;;;;;;;15.20;9.90;;;;;;;-139.48;100.00;61774.03;5074277;28;20181;-66
2021/04/15 07:28:56;;;;;;;14.88;10.30;;;;;;;-139.48;100.00;61774.03;5074748;28;20129;-67
2021/04/15 07:32:14;;;;;;;14.73;10.05;;;;;;;-139.48;100.00;61774.03;5074122;28;20472;-67
2021/04/15 07:35:28;;;;;;;14.75;10.02;;;;;;;-139.48;100.00;61774.03;5032670;28;20048;-67
2021/04/15 07:38:48;;;;;;;14.15;9.38;;;;;;;-139.48;100.00;61774.03;5074053;28;20047;-67
2021/04/15 07:41:57;;;;;;;13.35;8.63;;;;;;;-139.48;100.00;61774.03;5040146;28;20109;-67
2021/04/15 07:44:46;;;;;;;13.43;8.70;;;;;;;-139.48;100.00;61774.03;5059196;28;20412;-68
2021/04/15 07:47:33;;;;;;;17.30;8.70;;;;;;;-139.48;100.00;61774.03;5045237;28;20055;-66
2021/04/15 07:50:49;;;;;;;12.77;8.38;;;;;;;-139.48;100.00;61774.03;5074501;28;20175;-67
2021/04/15 07:53:42;;;;;;;11.95;8.30;;;;;;;-139.48;100.00;61774.03;5073859;28;20047;-67
2021/04/15 07:56:38;;;;;;;13.10;8.82;;;;;;;-139.48;100.00;61774.03;5058592;28;20094;-67
2021/04/15 07:59:56;;;;;;;16.55;7.68;;;;;;;-139.48;100.00;61774.03;5073991;28;20051;-67
2021/04/15 08:03:05;;;;;;;12.65;7.90;;;;;;;-139.48;100.00;61774.03;5073573;28;20043;-66
2021/04/15 08:06:07;;;;;;;12.88;8.32;;;;;;;-139.48;100.00;61774.03;5074132;28;20051;-67
2021/04/15 08:09:13;;;;;;;9.10;5.95;;;;;;;-139.48;100.00;61774.03;5073769;28;20043;-67
2021/04/15 08:12:25;;;;;;;12.60;6.45;;;;;;;-139.48;100.00;61774.03;5073571;28;20091;-67
2021/04/15 08:15:40;;;;;;;9.68;6.28;;;;;;;-139.48;100.00;61774.03;5073213;28;20047;-66
2021/04/15 08:18:36;;;;;;;8.20;6.10;;;;;;;-139.48;100.00;61774.03;5058761;28;20090;-68
2021/04/15 08:21:31;;;;;;;10.68;6.82;;;;;;;-139.48;100.00;61774.03;5073582;28;20062;-68
2021/04/15 08:24:30;;;;;;;8.90;6.43;;;;;;;-139.48;100.00;61774.03;5073603;28;20059;-68
2021/04/15 08:27:39;;;;;;;12.32;7.10;;;;;;;-139.48;100.00;61774.03;5058409;28;20433;-67
2021/04/15 08:30:46;;;;;;;12.85;6.85;;;;;;;-139.48;100.00;61774.03;5073563;28;20093;-66
2021/04/15 08:33:47;;;;;;;9.88;6.70;;;;;;;-139.48;100.00;61774.03;5058221;28;20569;-66
2021/04/15 08:36:48;;;;;;;12.95;6.05;;;;;;;-139.48;100.00;61774.03;5044203;28;20413;-66
2021/04/15 08:39:50;;;;;;;11.75;6.43;;;;;;;-139.48;100.00;61774.03;5073386;28;20105;-67
2021/04/15 08:42:56;;;;;;;8.10;6.38;;;;;;;-139.48;100.00;61774.03;5057777;28;20138;-67
2021/04/15 08:45:53;;;;;;;8.75;6.40;;;;;;;-139.48;100.00;61774.03;5058184;28;20054;-67
2021/04/15 08:48:41;;;;;;;8.90;6.18;;;;;;;-139.48;100.00;61774.03;5058151;28;20527;-67
2021/04/15 08:52:02;;;;;;;7.65;6.07;;;;;;;-139.48;100.00;61774.03;5057840;28;20113;-66
2021/04/15 08:54:58;;;;;;;11.15;6.35;;;;;;;-139.48;100.00;61774.03;5058196;28;20051;-66
2021/04/15 08:58:01;;;;;;;11.98;6.53;;;;;;;-139.48;100.00;61774.03;5073322;28;20145;-66
2021/04/15 09:00:55;;;;;;;9.43;5.85;;;;;;;-139.48;100.00;61774.03;5073303;28;20043;-66
2021/04/15 09:03:44;;;;;;;11.02;6.55;;;;;;;-139.48;100.00;61774.03;5057520;28;20524;-66
2021/04/15 09:06:47;;;;;;;11.85;6.60;;;;;;;-139.48;100.00;61774.03;5058349;28;20094;-66
2021/04/15 09:09:50;;;;;;;7.20;5.47;;;;;;;-139.48;100.00;61774.03;5058022;28;20136;-66
2021/04/15 09:13:00;;;;;;;9.52;6.50;;;;;;;-139.48;100.00;61774.03;5072879;28;20518;-66
2021/04/15 09:16:02;;;;;;;9.38;6.35;;;;;;;-139.48;100.00;61774.03;5056975;28;20046;-66
2021/04/15 09:19:10;;;;;;;10.65;6.25;;;;;;;-139.48;100.00;61774.03;5073099;28;20546;-66
2021/04/15 09:22:18;;;;;;;11.32;6.00;;;;;;;-139.48;100.00;61774.03;5057931;28;20563;-66
2021/04/15 09:25:06;;;;;;;9.60;6.30;;;;;;;-139.48;100.00;61774.03;5057742;28;20549;-66
2021/04/15 09:28:10;;;;;;;8.30;5.95;;;;;;;-139.48;100.00;61774.03;5057809;28;20051;-66
2021/04/15 09:31:16;;;;;;;8.48;5.35;;;;;;;-139.48;100.00;61774.03;5057571;28;20117;-66
2021/04/15 09:34:37;;;;;;;6.80;5.18;;;;;;;-139.48;100.00;61774.03;5057484;28;20179;-66
2021/04/15 09:37:47;;;;;;;10.13;5.25;;;;;;;-139.48;100.00;61774.03;5072618;28;20071;-66
2021/04/15 09:40:42;;;;;;;6.90;5.70;;;;;;;-139.48;100.00;61774.03;5075043;28;20129;-66
2021/04/15 09:43:38;;;;;;;8.07;5.25;;;;;;;-139.48;100.00;61774.03;5047356;28;20043;-66
2021/04/15 09:46:32;;;;;;;8.25;5.40;;;;;;;-139.48;100.00;61774.03;5076467;28;20051;-66
2021/04/15 09:49:19;;;;;;;8.63;5.45;;;;;;;-139.48;100.00;61774.03;5061347;28;20058;-66
2021/04/15 09:52:19;;;;;;;9.43;6.00;;;;;;;-139.48;100.00;61774.03;5061075;28;20056;-66
2021/04/15 09:55:45;;;;;;;8.88;5.60;;;;;;;-139.48;100.00;61774.03;5076125;28;20054;-67
2021/04/15 09:58:54;;;;;;;7.70;4.30;;;;;;;-139.48;100.00;61774.03;5059157;28;20063;-67
2021/04/15 10:01:41;;;;;;;5.60;4.25;;;;;;;-139.48;100.00;61774.03;5061378;28;20097;-67
2021/04/15 10:04:37;;;;;;;6.65;4.13;;;;;;;-139.48;100.00;61774.03;5061408;28;20042;-66
2021/04/15 10:07:35;;;;;;;4.60;3.85;;;;;;;-139.48;100.00;61774.03;5061851;28;20123;-67
2021/04/15 10:10:52;;;;;;;7.85;4.70;;;;;;;-139.48;100.00;61774.03;5061581;28;20051;-67
2021/04/15 10:14:17;;;;;;;7.00;3.75;;;;;;;-139.48;100.00;61774.03;5075647;28;20514;-67
2021/04/15 10:17:07;;;;;;;5.25;3.25;;;;;;;-139.48;100.00;61774.03;5075685;28;20042;-67
2021/04/15 10:20:17;;;;;;;5.90;4.15;;;;;;;-139.48;100.00;61774.03;5075843;28;20044;-67
2021/04/15 10:23:04;;;;;;;4.70;3.30;;;;;;;-139.48;100.00;61774.03;5075463;28;20412;-67
2021/04/15 10:26:00;;;;;;;3.13;2.83;;;;;;;-139.48;100.00;61774.03;5060650;28;20094;-67
2021/04/15 10:28:53;;;;;;;5.72;3.95;;;;;;;-139.48;100.00;61774.03;5075656;28;20094;-67
2021/04/15 10:31:59;;;;;;;4.20;3.50;;;;;;;-139.48;100.00;61774.03;5075242;28;20098;-66
2021/04/15 10:35:01;;;;;;;4.55;3.33;;;;;;;-139.48;100.00;61774.03;5060192;28;20036;-67
2021/04/15 10:38:04;;;;;;;3.13;2.78;;;;;;;-139.48;100.00;61774.03;5075311;28;20581;-68
2021/04/15 10:41:06;;;;;;;3.75;3.33;;;;;;;-139.48;100.00;61774.03;5075565;28;20113;-67
2021/04/15 10:44:14;;;;;;;4.35;3.00;;;;;;;-139.48;100.00;61774.03;5075406;28;20039;-68
2021/04/15 10:47:32;;;;;;;3.60;3.00;;;;;;;-139.48;100.00;61774.03;5075144;28;20070;-67
2021/04/15 10:50:50;;;;;;;3.88;3.00;;;;;;;-139.48;100.00;61774.03;5075166;28;20186;-67
2021/04/15 10:53:53;;;;;;;4.78;3.40;;;;;;;-139.48;100.00;61774.03;5075124;28;20047;-67
2021/04/15 10:56:43;;;;;;;3.58;2.95;;;;;;;-139.48;100.00;61774.03;5059780;28;20048;-67
2021/04/15 10:59:31;;;;;;;5.18;3.55;;;;;;;-139.48;100.00;61774.03;5060144;28;20101;-67
2021/04/15 11:02:17;;;;;;;3.70;3.08;;;;;;;-139.48;100.00;61774.03;5074371;28;20060;-66
2021/04/15 11:05:16;;;;;;;5.95;3.47;;;;;;;-139.48;100.00;61774.03;5044476;28;20055;-67
2021/04/15 11:08:09;;;;;;;4.35;3.00;;;;;;;-139.48;100.00;61774.03;5074370;28;20085;-66
2021/04/15 11:11:12;;;;;;;4.35;3.75;;;;;;;-139.48;100.00;61774.03;5044650;28;20128;-65
2021/04/15 11:14:06;;;;;;;3.95;3.20;;;;;;;-139.48;100.00;61774.03;5073505;28;20047;-67
2021/04/15 11:16:53;;;;;;;5.00;3.45;;;;;;;-139.48;100.00;61774.03;5058838;28;20141;-66
2021/04/15 11:19:37;;;;;;;4.47;3.38;;;;;;;-139.48;100.00;61774.03;5058689;28;20048;-65
2021/04/15 11:22:30;;;;;;;4.50;3.38;;;;;;;-139.48;100.00;61774.03;5044039;28;20109;-66
2021/04/15 11:25:21;;;;;;;4.00;3.10;;;;;;;-139.48;100.00;61774.03;5058538;28;20131;-68
2021/04/15 11:28:31;;;;;;;4.18;3.20;;;;;;;-139.48;100.00;61774.03;5044475;28;20071;-67
2021/04/15 11:31:37;;;;;;;3.65;3.20;;;;;;;-139.48;100.00;61774.03;5057653;28;20413;-68
2021/04/15 11:34:25;;;;;;;6.28;3.60;;;;;;;-139.48;100.00;61774.03;5058263;28;20063;-67
2021/04/15 11:37:19;;;;;;;6.13;4.25;;;;;;;-139.48;100.00;61774.03;5058377;28;20094;-68
2021/04/15 11:40:13;;;;;;;;;;;;;;;-139.48;100.00;61774.03;5073808;28;20093;-68
2021/04/15 11:42:58;;;;;;;6.47;3.95;;;;;;;-139.48;100.00;61774.03;5058196;28;19919;-67
2021/04/15 11:45:42;;;;;;;4.57;3.22;;;;;;;-139.48;100.00;61774.03;5058078;28;20122;-67
2021/04/15 11:48:28;;;;;;;5.43;3.20;;;;;;;-139.48;100.00;61774.03;5057878;28;20048;-68
2021/04/15 11:51:21;;;;;;;4.75;3.10;;;;;;;-139.48;100.00;61774.03;5058226;28;20082;-67
2021/04/15 11:54:12;;;;;;;3.45;2.60;;;;;;;-139.48;100.00;61774.03;5073226;28;20095;-67
2021/04/15 11:56:56;;;;;;;2.95;2.42;;;;;;;-139.48;100.00;61774.03;5057830;28;20050;-67
2021/04/15 11:59:41;;;;;;;2.45;2.20;;;;;;;-139.48;100.00;61774.03;5058136;28;20067;-67
2021/04/15 12:02:34;;;;;;;2.40;2.00;;;;;;;-139.48;100.00;61774.03;5022995;28;588178;-67
2021/04/15 12:05:22;;;;;;;3.47;2.30;;;;;;;-139.48;100.00;61774.03;5073830;28;20079;-67
2021/04/15 12:08:31;;;;;;;3.20;2.28;;;;;;;-139.48;100.00;61774.03;5073557;28;20089;-67
2021/04/15 12:11:25;;;;;;;3.28;2.20;;;;;;;-139.48;100.00;61774.03;5044577;28;20094;-67
2021/04/15 12:14:11;;;;;;;3.90;2.67;;;;;;;-139.48;100.00;61774.03;5058356;28;20094;-67
2021/04/15 12:17:05;;;;;;;4.18;2.72;;;;;;;-139.48;100.00;61774.03;5044812;28;20417;-68
2021/04/15 12:20:22;;;;;;;4.53;2.13;;;;;;;-139.48;100.00;61774.03;5058302;28;20086;-67
2021/04/15 12:23:30;;;;;;;3.83;2.08;;;;;;;-139.48;100.00;61774.03;5039135;28;20090;-67
2021/04/15 12:26:25;;;;;;;3.75;2.50;;;;;;;-139.48;100.00;61774.03;5073539;28;20097;-66
2021/04/15 12:29:15;;;;;;;3.90;2.40;;;;;;;-139.48;100.00;61774.03;5058405;28;20043;-67
2021/04/15 12:32:05;;;;;;;3.20;2.75;;;;;;;-139.48;100.00;61774.03;5073315;28;20109;-67
2021/04/15 12:34:52;;;;;;;3.17;2.58;;;;;;;-139.48;100.00;61774.03;5073564;28;20059;-67
2021/04/15 12:37:44;;;;;;;2.65;2.35;;;;;;;-139.48;100.00;61774.03;5073572;28;20051;-67
2021/04/15 12:40:33;;;;;;;4.82;3.03;;;;;;;-139.48;100.00;61774.03;5058473;28;20051;-67
2021/04/15 12:43:27;;;;;;;4.22;3.35;;;;;;;-139.48;100.00;61774.03;5058106;28;20514;-66
2021/04/15 12:46:23;;;;;;;5.57;3.13;;;;;;;-139.48;100.00;61774.03;5058658;28;20040;-67
2021/04/15 12:49:09;;;;;;;3.40;3.10;;;;;;;-139.48;100.00;61774.03;5044076;28;20401;-67
2021/04/15 12:51:59;;;;;;;3.60;3.30;;;;;;;-139.48;100.00;61774.03;5058354;28;20102;-67
2021/04/15 12:54:44;;;;;;;6.97;3.97;;;;;;;-139.48;100.00;61774.03;5057828;28;20512;-66
2021/04/15 12:57:31;;;;;;;4.03;3.58;;;;;;;-139.48;100.00;61774.03;5044052;28;20044;-65
2021/04/15 13:00:26;;;;;;;4.47;3.80;;;;;;;-139.48;100.00;61774.03;5057763;28;20051;-66
2021/04/15 13:03:21;;;;;;;3.90;3.50;;;;;;;-139.48;100.00;61774.03;5057797;28;20437;-65
2021/04/15 13:06:16;;;;;;;4.95;3.83;;;;;;;-139.48;100.00;61774.03;5057981;28;20047;-65
2021/04/15 13:09:00;;;;;;;7.30;3.60;;;;;;;-139.48;100.00;61774.03;5058125;28;20051;-65